createdAt,value
2022-11-25T00:00:00.155Z,98008.31
2022-11-25T00:02:03.130Z,98012.69
2022-11-25T00:04:07.629Z,98016.38
2022-11-25T00:06:12.721Z,98011.19
2022-11-25T00:08:15.747Z,98016.44
2022-11-25T00:10:18.747Z,98011.34
2022-11-25T00:12:21.776Z,98017.41
2022-11-25T00:14:24.756Z,98013.13
2022-11-25T00:16:29.301Z,98012.31
2022-11-25T00:18:32.803Z,98013.28
2022-11-25T00:20:38.431Z,98015.13
2022-11-25T00:22:41.519Z,98010.84
2022-11-25T00:24:44.609Z,98013.50
2022-11-25T00:26:47.645Z,98016.16
2022-11-25T00:28:50.992Z,98010.25
2022-11-25T00:30:54.052Z,98001.75
2022-11-25T00:32:57.040Z,98005.28
2022-11-25T00:35:00.017Z,98002.09
2022-11-25T00:37:04.522Z,98005.72
2022-11-25T00:39:09.255Z,97998.19
2022-11-25T00:41:29.838Z,98008.91
2022-11-25T00:43:50.487Z,98010.13
2022-11-25T00:45:53.491Z,98018.06
2022-11-25T00:47:56.471Z,98010.47
2022-11-25T00:49:59.530Z,98009.53
2022-11-25T00:52:04.138Z,98002.72
2022-11-25T00:54:07.452Z,98010.47
2022-11-25T00:56:17.082Z,98012.38
2022-11-25T00:58:20.104Z,98012.44
2022-11-25T01:00:23.420Z,98014.16
2022-11-25T01:02:28.982Z,98018.56
2022-11-25T01:04:32.058Z,98011.78
2022-11-25T01:06:35.126Z,98027.34
2022-11-25T01:08:39.833Z,98027.41
2022-11-25T01:10:42.887Z,98030.00
2022-11-25T01:12:48.509Z,98037.00
2022-11-25T01:14:52.687Z,98036.09
2022-11-25T01:16:55.813Z,98025.78
2022-11-25T01:18:59.477Z,98036.09
2022-11-25T01:21:07.183Z,98031.63
2022-11-25T01:23:10.139Z,98025.50
2022-11-25T01:25:14.610Z,98025.50
2022-11-25T01:27:17.590Z,98025.50
2022-11-25T01:29:20.873Z,98020.31
2022-11-25T01:31:25.272Z,98029.66
2022-11-25T01:33:29.729Z,98034.75
2022-11-25T01:35:38.044Z,98031.28
2022-11-25T01:37:41.042Z,98026.09
2022-11-25T01:39:44.098Z,98030.38
2022-11-25T01:41:49.109Z,98029.50
2022-11-25T01:44:06.030Z,98022.56
2022-11-25T01:46:21.119Z,98012.22
2022-11-25T01:48:27.685Z,98016.59
2022-11-25T01:50:33.379Z,98021.75
2022-11-25T01:52:38.951Z,98011.66
2022-11-25T01:54:45.355Z,98010.75
2022-11-25T01:56:52.086Z,98010.88
2022-11-25T01:58:55.361Z,98015.28
2022-11-25T02:00:58.311Z,98016.19
2022-11-25T02:03:01.842Z,98013.75
2022-11-25T02:05:09.352Z,98004.31
2022-11-25T02:07:14.055Z,98004.19
2022-11-25T02:09:19.831Z,98002.38
2022-11-25T02:11:25.121Z,98006.56
2022-11-25T02:13:29.934Z,98003.00
2022-11-25T02:15:35.316Z,98018.34
2022-11-25T02:17:40.372Z,98019.13
2022-11-25T02:19:58.015Z,98014.69
2022-11-25T02:22:03.599Z,98007.88
2022-11-25T02:24:11.069Z,98010.41
2022-11-25T02:26:15.407Z,98019.72
2022-11-25T02:28:20.054Z,98016.38
2022-11-25T02:30:24.926Z,98024.00
2022-11-25T02:32:30.060Z,98016.16
2022-11-25T02:34:33.300Z,98010.94
2022-11-25T02:36:36.347Z,98013.44
2022-11-25T02:38:43.313Z,98015.22
2022-11-25T02:40:50.142Z,98022.16
2022-11-25T02:42:54.611Z,98019.50
2022-11-25T02:44:58.664Z,98022.25
2022-11-25T02:47:01.686Z,98028.19
2022-11-25T02:49:09.610Z,98021.28
2022-11-25T02:51:16.868Z,98023.03
2022-11-25T02:53:20.386Z,98028.25
2022-11-25T02:55:23.369Z,98017.22
2022-11-25T02:57:26.331Z,98020.66
2022-11-25T02:59:30.656Z,98018.91
2022-11-25T03:01:35.248Z,98018.97
2022-11-25T03:03:41.407Z,98011.22
2022-11-25T03:05:44.699Z,98020.78
2022-11-25T03:07:47.737Z,98017.28
2022-11-25T03:09:52.764Z,98021.47
2022-11-25T03:12:13.287Z,98010.31
2022-11-25T03:14:16.629Z,97999.06
2022-11-25T03:16:21.124Z,97989.66
2022-11-25T03:18:24.186Z,97996.63
2022-11-25T03:20:27.391Z,97986.41
2022-11-25T03:22:30.394Z,97990.72
2022-11-25T03:24:34.087Z,97989.19
2022-11-25T03:26:37.490Z,97987.50
2022-11-25T03:28:40.728Z,97986.69
2022-11-25T03:30:45.061Z,97993.44
2022-11-25T03:32:49.782Z,97992.59
2022-11-25T03:34:52.784Z,97994.50
2022-11-25T03:36:55.777Z,97986.81
2022-11-25T03:39:02.343Z,97983.25
2022-11-25T03:41:05.411Z,97979.00
2022-11-25T03:43:08.584Z,97979.09
2022-11-25T03:45:14.021Z,97973.06
2022-11-25T03:47:17.190Z,97974.66
2022-11-25T03:49:22.275Z,97973.84
2022-11-25T03:51:25.763Z,97967.81
2022-11-25T03:53:29.437Z,97967.00
2022-11-25T03:55:33.803Z,97973.00
2022-11-25T03:57:36.898Z,97973.06
2022-11-25T03:59:39.918Z,97975.66
2022-11-25T04:01:44.588Z,97975.72
2022-11-25T04:03:48.051Z,97976.66
2022-11-25T04:05:52.360Z,97972.44
2022-11-25T04:07:58.302Z,97969.88
2022-11-25T04:10:02.398Z,97978.38
2022-11-25T04:12:25.814Z,97976.66
2022-11-25T04:14:34.235Z,97977.59
2022-11-25T04:16:37.658Z,97973.19
2022-11-25T04:18:40.766Z,97974.06
2022-11-25T04:20:44.454Z,97983.47
2022-11-25T04:22:49.591Z,97986.25
2022-11-25T04:24:53.904Z,97971.91
2022-11-25T04:27:01.125Z,97973.00
2022-11-25T04:29:04.337Z,97980.13
2022-11-25T04:31:08.109Z,97983.63
2022-11-25T04:33:13.831Z,97973.16
2022-11-25T04:35:18.546Z,97981.84
2022-11-25T04:37:26.442Z,97969.97
2022-11-25T04:39:31.934Z,97972.53
2022-11-25T04:41:39.626Z,97968.34
2022-11-25T04:43:42.581Z,97964.25
2022-11-25T04:46:12.890Z,97961.81
2022-11-25T04:48:12.495Z,97966.91
2022-11-25T04:50:18.589Z,97964.47
2022-11-25T04:52:31.364Z,97964.47
2022-11-25T04:54:35.927Z,97965.22
2022-11-25T04:56:39.198Z,97971.13
2022-11-25T04:59:01.051Z,97980.41
2022-11-25T05:01:04.324Z,97977.63
2022-11-25T05:03:08.117Z,97979.28
2022-11-25T05:05:12.831Z,97973.22
2022-11-25T05:07:17.287Z,97969.81
2022-11-25T05:09:23.092Z,97959.50
2022-11-25T05:11:37.991Z,97957.72
2022-11-25T05:13:41.509Z,97963.88
2022-11-25T05:15:44.650Z,97950.97
2022-11-25T05:17:49.117Z,97957.81
2022-11-25T05:19:57.542Z,97959.56
2022-11-25T05:22:00.592Z,97968.81
2022-11-25T05:24:03.900Z,97975.53
2022-11-25T05:26:08.870Z,97983.94
2022-11-25T05:28:19.934Z,97990.72
2022-11-25T05:30:23.150Z,97994.28
2022-11-25T05:32:26.454Z,97995.13
2022-11-25T05:34:32.505Z,97992.69
2022-11-25T05:36:35.798Z,97990.94
2022-11-25T05:38:39.864Z,97994.34
2022-11-25T05:40:44.743Z,97995.22
2022-11-25T05:42:50.949Z,97981.38
2022-11-25T05:44:56.938Z,97984.75
2022-11-25T05:47:00.116Z,97987.47
2022-11-25T05:49:03.747Z,97987.81
2022-11-25T05:51:09.010Z,97985.44
2022-11-25T05:53:12.352Z,97996.03
2022-11-25T05:55:15.763Z,97998.00
2022-11-25T05:57:20.832Z,98003.16
2022-11-25T05:59:27.979Z,98003.28
2022-11-25T06:01:42.288Z,97999.84
2022-11-25T06:03:45.350Z,98002.38
2022-11-25T06:05:49.069Z,98016.97
2022-11-25T06:07:52.750Z,98018.66
2022-11-25T06:10:02.843Z,98025.47
2022-11-25T06:12:08.228Z,98021.97
2022-11-25T06:14:17.600Z,98028.69
2022-11-25T06:16:23.142Z,98031.16
2022-11-25T06:18:37.306Z,98033.69
2022-11-25T06:20:42.669Z,98034.47
2022-11-25T06:22:46.273Z,98027.69
2022-11-25T06:24:57.603Z,98041.34
2022-11-25T06:27:04.335Z,98047.44
2022-11-25T06:29:08.688Z,98047.44
2022-11-25T06:31:13.616Z,98042.28
2022-11-25T06:33:25.181Z,98047.38
2022-11-25T06:35:29.940Z,98046.44
2022-11-25T06:37:37.300Z,98043.81
2022-11-25T06:39:40.350Z,98044.66
2022-11-25T06:41:43.356Z,98043.75
2022-11-25T06:43:46.424Z,98042.91
2022-11-25T06:45:49.415Z,98045.56
2022-11-25T06:47:52.443Z,98044.81
2022-11-25T06:49:56.234Z,98046.53
2022-11-25T06:52:00.730Z,98049.03
2022-11-25T06:54:03.719Z,98057.56
2022-11-25T06:56:09.399Z,98066.06
2022-11-25T06:58:34.401Z,98067.69
2022-11-25T07:00:36.087Z,98060.84
2022-11-25T07:02:43.979Z,98072.91
2022-11-25T07:04:48.348Z,98066.06
2022-11-25T07:06:51.427Z,98058.41
2022-11-25T07:08:56.128Z,98055.75
2022-11-25T07:11:04.299Z,98053.09
2022-11-25T07:13:07.335Z,98059.22
2022-11-25T07:15:11.213Z,98065.31
2022-11-25T07:17:14.318Z,98072.84
2022-11-25T07:19:19.491Z,98071.94
2022-11-25T07:21:24.625Z,98083.03
2022-11-25T07:23:28.887Z,98088.97
2022-11-25T07:25:33.769Z,98086.31
2022-11-25T07:27:36.758Z,98084.63
2022-11-25T07:30:29.257Z,98094.06
2022-11-25T07:32:07.283Z,98076.00
2022-11-25T07:34:17.492Z,98078.56
2022-11-25T07:36:20.683Z,98081.97
2022-11-25T07:38:23.792Z,98090.59
2022-11-25T07:40:26.879Z,98086.09
2022-11-25T07:42:31.234Z,98085.91
2022-11-25T07:44:34.500Z,98094.63
2022-11-25T07:46:53.859Z,98107.91
2022-11-25T07:48:59.990Z,98120.38
2022-11-25T07:51:02.972Z,98119.34
2022-11-25T07:53:06.071Z,98129.63
2022-11-25T07:55:09.909Z,98125.03
2022-11-25T07:57:15.862Z,98131.16
2022-11-25T07:59:21.635Z,98135.78
2022-11-25T08:01:25.136Z,98140.97
2022-11-25T08:03:28.245Z,98135.47
2022-11-25T08:05:31.271Z,98126.28
2022-11-25T08:07:36.650Z,98124.66
2022-11-25T08:09:40.179Z,98130.63
2022-11-25T08:11:43.585Z,98136.31
2022-11-25T08:13:47.164Z,98144.03
2022-11-25T08:15:51.670Z,98156.16
2022-11-25T08:17:54.784Z,98161.75
2022-11-25T08:19:57.969Z,98159.59
2022-11-25T08:22:01.052Z,98154.81
2022-11-25T08:24:04.236Z,98148.53
2022-11-25T08:26:09.083Z,98148.22
2022-11-25T08:28:12.120Z,98147.88
2022-11-25T08:30:15.447Z,98146.63
2022-11-25T08:32:19.857Z,98162.78
2022-11-25T08:34:24.744Z,98154.56
2022-11-25T08:36:35.526Z,98165.06
2022-11-25T08:38:38.639Z,98161.72
2022-11-25T08:40:45.244Z,98160.03
2022-11-25T08:42:48.293Z,98159.13
2022-11-25T08:44:53.914Z,98163.41
2022-11-25T08:46:56.994Z,98164.91
2022-11-25T08:49:02.280Z,98159.56
2022-11-25T08:51:09.236Z,98164.84
2022-11-25T08:53:12.222Z,98159.56
2022-11-25T08:55:15.356Z,98157.78
2022-11-25T08:57:18.530Z,98156.09
2022-11-25T08:59:22.773Z,98152.59
2022-11-25T09:01:26.009Z,98136.91
2022-11-25T09:03:29.708Z,98130.84
2022-11-25T09:05:36.094Z,98133.69
2022-11-25T09:07:39.259Z,98130.50
2022-11-25T09:09:42.517Z,98136.34
2022-11-25T09:11:45.699Z,98141.28
2022-11-25T09:13:48.837Z,98154.09
2022-11-25T09:15:52.003Z,98160.88
2022-11-25T09:18:00.442Z,98170.03
2022-11-25T09:20:05.171Z,98168.84
2022-11-25T09:22:09.783Z,98178.16
2022-11-25T09:24:12.804Z,98186.59
2022-11-25T09:26:22.556Z,98184.06
2022-11-25T09:28:26.723Z,98183.91
2022-11-25T09:30:29.800Z,98194.13
2022-11-25T09:32:32.798Z,98184.50
2022-11-25T09:34:36.037Z,98183.59
2022-11-25T09:36:39.473Z,98184.28
2022-11-25T09:38:44.897Z,98192.66
2022-11-25T09:40:54.034Z,98188.66
2022-11-25T09:43:39.091Z,98194.19
2022-11-25T09:46:06.372Z,98197.81
2022-11-25T09:48:27.139Z,98198.25
2022-11-25T09:50:38.043Z,98199.69
2022-11-25T09:52:47.537Z,98190.91
2022-11-25T09:54:56.752Z,98207.97
2022-11-25T09:57:05.288Z,98206.81
2022-11-25T09:59:12.432Z,98208.22
2022-11-25T10:01:18.363Z,98207.97
2022-11-25T10:03:32.044Z,98204.38
2022-11-25T10:05:38.851Z,98211.91
2022-11-25T10:07:44.604Z,98214.25
2022-11-25T10:09:47.800Z,98216.69
2022-11-25T10:11:54.215Z,98213.19
2022-11-25T10:14:00.047Z,98207.28
2022-11-25T10:16:05.984Z,98203.97
2022-11-25T10:18:16.591Z,98209.16
2022-11-25T10:20:22.562Z,98208.16
2022-11-25T10:22:27.594Z,98206.13
2022-11-25T10:24:30.674Z,98197.94
2022-11-25T10:26:43.088Z,98202.59
2022-11-25T10:28:55.736Z,98202.91
2022-11-25T10:31:02.616Z,98198.91
2022-11-25T10:33:12.021Z,98193.22
2022-11-25T10:35:30.160Z,98198.72
2022-11-25T10:37:41.232Z,98200.88
2022-11-25T10:39:44.301Z,98198.00
2022-11-25T10:41:52.422Z,98202.25
2022-11-25T10:43:59.265Z,98204.78
2022-11-25T10:46:10.224Z,98206.44
2022-11-25T10:48:22.674Z,98211.66
2022-11-25T10:50:30.644Z,98214.25
2022-11-25T10:52:37.349Z,98216.09
2022-11-25T10:54:41.111Z,98219.06
2022-11-25T10:56:51.343Z,98217.38
2022-11-25T10:58:57.205Z,98212.25
2022-11-25T11:01:05.403Z,98211.09
2022-11-25T11:03:16.321Z,98211.75
2022-11-25T11:05:23.523Z,98219.63
2022-11-25T11:07:28.314Z,98222.22
2022-11-25T11:09:34.722Z,98220.34
2022-11-25T11:11:48.305Z,98216.75
2022-11-25T11:14:00.683Z,98223.13
2022-11-25T11:16:04.779Z,98219.72
2022-11-25T11:18:22.971Z,98228.50
2022-11-25T11:20:27.409Z,98227.84
2022-11-25T11:22:30.461Z,98233.13
2022-11-25T11:24:37.868Z,98240.84
2022-11-25T11:26:41.186Z,98240.75
2022-11-25T11:28:44.219Z,98244.09
2022-11-25T11:30:56.544Z,98237.91
2022-11-25T11:33:02.488Z,98252.22
2022-11-25T11:35:08.336Z,98251.97
2022-11-25T11:37:21.918Z,98255.94
2022-11-25T11:39:35.340Z,98267.03
2022-11-25T11:41:41.968Z,98263.47
2022-11-25T11:44:15.838Z,98269.34
2022-11-25T11:46:32.517Z,98271.84
2022-11-25T11:48:39.857Z,98277.72
2022-11-25T11:50:47.242Z,98279.38
2022-11-25T11:52:58.041Z,98287.09
2022-11-25T11:55:03.721Z,98294.81
2022-11-25T11:57:09.217Z,98298.16
2022-11-25T11:59:37.769Z,98295.31
2022-11-25T12:01:49.780Z,98300.34
2022-11-25T12:03:58.693Z,98298.56
2022-11-25T12:06:04.417Z,98300.16
2022-11-25T12:08:11.434Z,98306.09
2022-11-25T12:10:20.811Z,98301.63
2022-11-25T12:12:30.848Z,98304.06
2022-11-25T12:14:37.502Z,98306.56
2022-11-25T12:16:45.912Z,98308.16
2022-11-25T12:18:51.934Z,98315.78
2022-11-25T12:20:59.016Z,98304.38
2022-11-25T12:23:04.620Z,98307.63
2022-11-25T12:25:11.806Z,98305.75
2022-11-25T12:27:18.119Z,98309.97
2022-11-25T12:29:25.477Z,98309.88
2022-11-25T12:31:30.466Z,98317.50
2022-11-25T12:33:43.617Z,98316.53
2022-11-25T12:35:55.194Z,98313.94
2022-11-25T12:38:05.309Z,98314.88
2022-11-25T12:40:15.073Z,98322.69
2022-11-25T12:42:23.708Z,98320.00
2022-11-25T12:44:31.585Z,98322.53
2022-11-25T12:46:38.106Z,98326.78
2022-11-25T12:48:43.811Z,98326.69
2022-11-25T12:50:53.780Z,98335.44
2022-11-25T12:53:03.821Z,98341.47
2022-11-25T12:55:14.756Z,98340.63
2022-11-25T12:57:34.201Z,98340.72
2022-11-25T12:59:50.134Z,98340.63
2022-11-25T13:02:01.564Z,98345.84
2022-11-25T13:04:38.628Z,98348.53
2022-11-25T13:07:27.496Z,98358.75
2022-11-25T13:09:45.204Z,98359.50
2022-11-25T13:11:58.630Z,98362.94
2022-11-25T13:14:05.911Z,98362.84
2022-11-25T13:16:10.306Z,98371.59
2022-11-25T13:18:15.603Z,98374.19
2022-11-25T13:20:47.643Z,98365.44
2022-11-25T13:23:02.871Z,98376.53
2022-11-25T13:25:23.561Z,98375.50
2022-11-25T13:27:33.399Z,98378.88
2022-11-25T13:30:04.080Z,98377.81
2022-11-25T13:32:27.058Z,98389.00
2022-11-25T13:34:31.359Z,98395.03
2022-11-25T13:36:49.782Z,98392.25
2022-11-25T13:39:00.658Z,98395.41
2022-11-25T13:41:05.075Z,98390.84
2022-11-25T13:43:22.199Z,98392.38
2022-11-25T13:45:27.879Z,98400.81
2022-11-25T13:47:33.814Z,98405.84
2022-11-25T13:49:44.368Z,98397.03
2022-11-25T13:51:52.512Z,98399.63
2022-11-25T13:53:57.711Z,98404.00
2022-11-25T13:56:13.948Z,98397.13
2022-11-25T13:58:22.758Z,98396.38
2022-11-25T14:00:58.993Z,98397.31
2022-11-25T14:03:44.791Z,98406.13
2022-11-25T14:05:59.126Z,98408.81
2022-11-25T14:08:13.047Z,98411.59
2022-11-25T14:10:32.821Z,98410.84
2022-11-25T14:12:44.873Z,98416.16
2022-11-25T14:14:58.901Z,98423.88
2022-11-25T14:17:15.275Z,98428.97
2022-11-25T14:19:51.640Z,98429.81
2022-11-25T14:22:03.979Z,98435.03
2022-11-25T14:24:18.061Z,98440.22
2022-11-25T14:26:48.647Z,98443.59
2022-11-25T14:28:57.331Z,98446.94
2022-11-25T14:31:05.870Z,98458.19
2022-11-25T14:33:13.358Z,98450.28
2022-11-25T14:35:19.415Z,98448.53
2022-11-25T14:37:27.457Z,98462.28
2022-11-25T14:39:37.688Z,98452.72
2022-11-25T14:41:44.165Z,98463.03
2022-11-25T14:43:51.344Z,98470.75
2022-11-25T14:46:13.648Z,98462.03
2022-11-25T14:48:17.967Z,98459.34
2022-11-25T14:50:37.203Z,98465.38
2022-11-25T14:52:43.925Z,98468.75
2022-11-25T14:54:49.795Z,98466.06
2022-11-25T14:56:53.283Z,98482.50
2022-11-25T14:58:57.667Z,98478.22
2022-11-25T15:01:03.222Z,98471.16
2022-11-25T15:03:06.670Z,98484.19
2022-11-25T15:05:17.745Z,98480.63
2022-11-25T15:07:27.730Z,98487.53
2022-11-25T15:09:32.769Z,98487.53
2022-11-25T15:11:37.357Z,98493.47
2022-11-25T15:13:42.204Z,98500.47
2022-11-25T15:15:46.697Z,98495.25
2022-11-25T15:17:49.922Z,98492.56
2022-11-25T15:19:53.898Z,98495.25
2022-11-25T15:22:22.531Z,98499.63
2022-11-25T15:24:25.107Z,98500.56
2022-11-25T15:26:30.207Z,98506.50
2022-11-25T15:28:38.453Z,98507.44
2022-11-25T15:30:41.518Z,98512.66
2022-11-25T15:32:44.787Z,98509.19
2022-11-25T15:34:48.704Z,98513.47
2022-11-25T15:36:54.428Z,98515.25
2022-11-25T15:39:14.833Z,98527.31
2022-11-25T15:41:33.568Z,98521.28
2022-11-25T15:43:40.000Z,98532.53
2022-11-25T15:45:45.511Z,98541.28
2022-11-25T15:47:49.146Z,98544.72
2022-11-25T15:50:00.387Z,98540.34
2022-11-25T15:52:07.003Z,98542.03
2022-11-25T15:54:18.249Z,98542.03
2022-11-25T15:56:23.247Z,98539.44
2022-11-25T15:58:26.319Z,98549.03
2022-11-25T16:00:30.671Z,98551.72
2022-11-25T16:02:39.430Z,98545.66
2022-11-25T16:04:42.513Z,98549.19
2022-11-25T16:06:54.679Z,98563.97
2022-11-25T16:09:00.159Z,98562.31
2022-11-25T16:11:18.353Z,98569.34
2022-11-25T16:13:33.376Z,98566.91
2022-11-25T16:15:48.030Z,98562.66
2022-11-25T16:18:02.780Z,98559.28
2022-11-25T16:20:20.064Z,98566.16
2022-11-25T16:22:23.377Z,98567.88
2022-11-25T16:24:39.509Z,98572.22
2022-11-25T16:26:52.372Z,98570.47
2022-11-25T16:28:57.206Z,98577.69
2022-11-25T16:31:02.304Z,98568.13
2022-11-25T16:33:10.721Z,98575.84
2022-11-25T16:35:16.067Z,98577.50
2022-11-25T16:37:19.377Z,98575.84
2022-11-25T16:39:22.505Z,98575.06
2022-11-25T16:41:27.144Z,98581.22
2022-11-25T16:43:30.231Z,98582.13
2022-11-25T16:45:54.400Z,98578.78
2022-11-25T16:47:58.943Z,98584.91
2022-11-25T16:50:02.122Z,98588.34
2022-11-25T16:52:05.379Z,98591.81
2022-11-25T16:54:08.858Z,98604.66
2022-11-25T16:56:14.108Z,98604.66
2022-11-25T16:58:19.879Z,98607.19
2022-11-25T17:00:23.083Z,98604.66
2022-11-25T17:02:26.603Z,98608.19
2022-11-25T17:04:31.192Z,98609.00
2022-11-25T17:06:34.263Z,98610.78
2022-11-25T17:08:37.294Z,98608.34
2022-11-25T17:10:41.175Z,98611.03
2022-11-25T17:12:45.271Z,98610.38
2022-11-25T17:14:49.250Z,98605.34
2022-11-25T17:16:52.601Z,98623.63
2022-11-25T17:18:57.577Z,98621.13
2022-11-25T17:21:02.153Z,98626.31
2022-11-25T17:23:07.246Z,98631.63
2022-11-25T17:25:12.553Z,98639.41
2022-11-25T17:27:20.153Z,98633.38
2022-11-25T17:29:29.535Z,98642.13
2022-11-25T17:31:33.570Z,98636.91
2022-11-25T17:33:36.741Z,98642.13
2022-11-25T17:35:39.866Z,98643.81
2022-11-25T17:37:44.292Z,98650.66
2022-11-25T17:39:47.422Z,98653.28
2022-11-25T17:41:51.598Z,98653.19
2022-11-25T17:43:55.318Z,98661.00
2022-11-25T17:45:58.510Z,98660.25
2022-11-25T17:48:01.790Z,98657.81
2022-11-25T17:50:16.000Z,98662.94
2022-11-25T17:52:19.118Z,98662.09
2022-11-25T17:54:23.601Z,98672.50
2022-11-25T17:56:30.240Z,98677.63
2022-11-25T17:58:33.472Z,98681.06
2022-11-25T18:00:43.851Z,98688.78
2022-11-25T18:02:47.240Z,98685.25
2022-11-25T18:04:50.670Z,98689.63
2022-11-25T18:06:54.178Z,98697.34
2022-11-25T18:08:57.214Z,98702.47
2022-11-25T18:11:02.720Z,98706.84
2022-11-25T18:13:06.748Z,98703.38
2022-11-25T18:15:15.839Z,98706.00
2022-11-25T18:17:19.882Z,98711.47
2022-11-25T18:19:23.082Z,98706.59
2022-11-25T18:21:27.416Z,98708.41
2022-11-25T18:23:30.804Z,98711.09
2022-11-25T18:25:34.643Z,98712.88
2022-11-25T18:27:39.132Z,98720.75
2022-11-25T18:29:42.223Z,98724.97
2022-11-25T18:31:45.907Z,98731.09
2022-11-25T18:33:48.990Z,98736.47
2022-11-25T18:35:52.201Z,98734.75
2022-11-25T18:37:56.640Z,98737.38
2022-11-25T18:39:59.804Z,98736.47
2022-11-25T18:42:03.098Z,98738.16
2022-11-25T18:44:08.720Z,98746.03
2022-11-25T18:46:12.146Z,98738.31
2022-11-25T18:48:17.096Z,98750.38
2022-11-25T18:50:21.854Z,98750.53
2022-11-25T18:52:25.510Z,98752.38
2022-11-25T18:54:30.054Z,98750.69
2022-11-25T18:56:35.428Z,98762.03
2022-11-25T18:58:38.574Z,98760.44
2022-11-25T19:00:43.490Z,98760.44
2022-11-25T19:02:46.738Z,98765.63
2022-11-25T19:04:49.869Z,98767.50
2022-11-25T19:06:53.139Z,98768.31
2022-11-25T19:08:56.635Z,98772.69
2022-11-25T19:10:59.759Z,98773.53
2022-11-25T19:13:04.827Z,98776.19
2022-11-25T19:15:09.088Z,98779.03
2022-11-25T19:17:20.323Z,98775.16
2022-11-25T19:19:23.840Z,98780.69
2022-11-25T19:21:26.994Z,98785.97
2022-11-25T19:23:30.493Z,98792.81
2022-11-25T19:25:33.526Z,98793.75
2022-11-25T19:27:37.837Z,98799.94
2022-11-25T19:29:42.396Z,98805.16
2022-11-25T19:31:46.163Z,98806.13
2022-11-25T19:33:52.340Z,98819.91
2022-11-25T19:35:56.059Z,98818.22
2022-11-25T19:37:59.606Z,98822.44
2022-11-25T19:40:07.779Z,98828.47
2022-11-25T19:42:11.365Z,98831.06
2022-11-25T19:44:14.514Z,98832.78
2022-11-25T19:46:29.652Z,98834.50
2022-11-25T19:48:38.769Z,98838.81
2022-11-25T19:50:44.766Z,98844.91
2022-11-25T19:52:49.783Z,98848.38
2022-11-25T19:54:53.466Z,98855.31
2022-11-25T19:56:57.619Z,98849.22
2022-11-25T19:59:02.302Z,98850.97
2022-11-25T20:01:06.458Z,98850.19
2022-11-25T20:03:14.574Z,98856.34
2022-11-25T20:05:21.044Z,98858.94
2022-11-25T20:07:27.532Z,98868.53
2022-11-25T20:09:30.709Z,98863.41
2022-11-25T20:11:36.754Z,98877.44
2022-11-25T20:13:40.590Z,98866.31
2022-11-25T20:15:44.942Z,98876.03
2022-11-25T20:17:49.689Z,98872.69
2022-11-25T20:19:53.777Z,98873.72
2022-11-25T20:21:57.819Z,98882.50
2022-11-25T20:24:03.815Z,98881.81
2022-11-25T20:26:07.286Z,98887.31
2022-11-25T20:28:16.924Z,98896.06
2022-11-25T20:30:21.820Z,98891.00
2022-11-25T20:32:27.883Z,98897.31
2022-11-25T20:34:34.217Z,98895.00
2022-11-25T20:36:41.158Z,98895.22
2022-11-25T20:38:48.827Z,98900.56
2022-11-25T20:40:55.583Z,98908.28
2022-11-25T20:42:58.651Z,98905.53
2022-11-25T20:45:01.732Z,98910.59
2022-11-25T20:47:04.823Z,98914.03
2022-11-25T20:49:21.040Z,98916.69
2022-11-25T20:51:25.349Z,98914.16
2022-11-25T20:53:31.863Z,98918.75
2022-11-25T20:55:34.960Z,98921.56
2022-11-25T20:57:39.489Z,98919.94
2022-11-25T20:59:44.245Z,98925.13
2022-11-25T21:01:47.599Z,98923.47
2022-11-25T21:03:51.474Z,98933.13
2022-11-25T21:05:58.017Z,98931.53
2022-11-25T21:08:01.720Z,98934.13
2022-11-25T21:10:18.757Z,98940.28
2022-11-25T21:12:21.924Z,98941.22
2022-11-25T21:14:26.588Z,98940.44
2022-11-25T21:16:29.722Z,98948.28
2022-11-25T21:18:32.875Z,98952.63
2022-11-25T21:20:36.289Z,98952.59
2022-11-25T21:22:41.502Z,98950.09
2022-11-25T21:24:45.058Z,98951.13
2022-11-25T21:26:48.182Z,98959.06
2022-11-25T21:28:52.515Z,98958.28
2022-11-25T21:30:56.998Z,98962.72
2022-11-25T21:33:02.007Z,98961.78
2022-11-25T21:35:05.351Z,98965.25
2022-11-25T21:37:10.918Z,98964.25
2022-11-25T21:39:27.519Z,98963.56
2022-11-25T21:41:30.626Z,98963.00
2022-11-25T21:43:34.543Z,98963.41
2022-11-25T21:45:37.608Z,98958.47
2022-11-25T21:47:41.991Z,98963.09
2022-11-25T21:49:45.325Z,98970.28
2022-11-25T21:51:48.439Z,98972.22
2022-11-25T21:53:51.890Z,98980.34
2022-11-25T21:55:55.084Z,98976.97
2022-11-25T21:57:58.088Z,98979.44
2022-11-25T22:00:01.173Z,98983.56
2022-11-25T22:02:16.947Z,98983.38
2022-11-25T22:04:22.344Z,98986.66
2022-11-25T22:06:27.731Z,98990.72
2022-11-25T22:08:30.797Z,98994.03
2022-11-25T22:10:33.952Z,98999.16
2022-11-25T22:12:41.376Z,98992.97
2022-11-25T22:14:45.285Z,98991.22
2022-11-25T22:16:48.453Z,99003.31
2022-11-25T22:18:51.702Z,98999.09
2022-11-25T22:20:56.384Z,99003.25
2022-11-25T22:22:59.479Z,99008.16
2022-11-25T22:25:02.542Z,99015.06
2022-11-25T22:27:07.196Z,99019.31
2022-11-25T22:29:14.600Z,99022.53
2022-11-25T22:31:19.233Z,99023.28
2022-11-25T22:33:27.370Z,99024.06
2022-11-25T22:35:30.604Z,99023.22
2022-11-25T22:37:35.076Z,99022.25
2022-11-25T22:39:38.091Z,99017.00
2022-11-25T22:41:41.252Z,99025.50
2022-11-25T22:43:48.261Z,99024.53
2022-11-25T22:45:51.629Z,99032.31
2022-11-25T22:47:55.173Z,99028.09
2022-11-25T22:49:58.516Z,99035.81
2022-11-25T22:52:01.949Z,99033.34
2022-11-25T22:54:11.993Z,99034.25
2022-11-25T22:56:18.723Z,99037.84
2022-11-25T22:58:21.775Z,99039.56
2022-11-25T23:00:27.141Z,99032.78
2022-11-25T23:02:34.335Z,99038.81
2022-11-25T23:04:37.726Z,99032.78
2022-11-25T23:06:41.085Z,99040.63
2022-11-25T23:08:44.532Z,99044.25
2022-11-25T23:10:50.343Z,99047.63
2022-11-25T23:12:53.433Z,99044.91
2022-11-25T23:14:56.587Z,99043.03
2022-11-25T23:16:59.687Z,99048.09
2022-11-25T23:19:04.369Z,99054.13
2022-11-25T23:21:08.722Z,99054.81
2022-11-25T23:23:15.190Z,99059.13
2022-11-25T23:25:20.718Z,99060.88
2022-11-25T23:27:25.143Z,99053.91
2022-11-25T23:29:28.201Z,99060.66
2022-11-25T23:31:31.371Z,99056.22
2022-11-25T23:33:38.328Z,99059.53
2022-11-25T23:35:41.465Z,99055.16
2022-11-25T23:37:44.880Z,99054.13
2022-11-25T23:39:51.861Z,99065.28
2022-11-25T23:41:54.988Z,99065.16
2022-11-25T23:44:04.278Z,99071.16
2022-11-25T23:46:07.538Z,99070.28
2022-11-25T23:48:10.916Z,99072.00
2022-11-25T23:50:24.970Z,99068.56
2022-11-25T23:52:28.700Z,99079.84
2022-11-25T23:54:40.130Z,99085.31
2022-11-25T23:56:43.825Z,99078.69
2022-11-25T23:58:46.938Z,99082.63
